Time;durP1;ratioP1;P1;durP2;ratioP2;P2;SDS_P1;SDS_P2;PMS_P1;PMS_P2;Temp;Humidity;BMP_temperature;BMP_pressure;BME280_temperature;BME280_humidity;BME280_pressure;Samples;Min_cycle;Max_cycle;Signal;HPM_P1;HPM_P2
2021/12/25 00:01:54;;;;;;;266.67;149.47;;;;;;;6.34;100.00;97494.09;4925333;29;20458;-62
2021/12/25 00:04:20;;;;;;;382.67;170.73;;;;;;;6.32;100.00;97491.56;4926698;29;20039;-61
2021/12/25 00:06:46;;;;;;;355.60;165.20;;;;;;;6.27;100.00;97497.63;4923613;29;20384;-62
2021/12/25 00:09:11;;;;;;;426.53;166.63;;;;;;;6.24;100.00;97501.06;4924149;29;20031;-62
2021/12/25 00:11:37;;;;;;;50.90;46.37;;;;;;;6.16;100.00;97497.00;4925997;29;20494;-62
2021/12/25 00:14:10;;;;;;;9.83;7.43;;;;;;;6.09;100.00;97487.81;4907162;29;20454;-62
2021/12/25 00:16:36;;;;;;;392.73;160.80;;;;;;;6.00;100.00;97478.66;4906558;29;20469;-62
2021/12/25 00:19:04;;;;;;;388.73;164.13;;;;;;;5.89;100.00;97489.06;4927065;29;20031;-61
2021/12/25 00:21:29;;;;;;;356.97;158.27;;;;;;;5.87;100.00;97484.84;4925145;29;20465;-62
2021/12/25 00:23:55;;;;;;;376.67;165.90;;;;;;;5.86;100.00;97500.94;4922042;29;20047;-62
2021/12/25 00:27:09;;;;;;;242.83;103.23;;;;;;;5.90;100.00;97507.66;4950468;28;20086;-61
2021/12/25 00:32:07;;;;;;;11.87;6.73;;;;;;;5.90;100.00;97490.69;4991903;28;20041;-61
2021/12/25 00:34:33;;;;;;;392.07;157.37;;;;;;;5.85;100.00;97486.56;4986681;28;20061;-62
2021/12/25 00:36:58;;;;;;;288.00;141.00;;;;;;;5.78;100.00;97495.16;4987596;28;20176;-62
2021/12/25 00:39:28;;;;;;;148.70;110.73;;;;;;;5.76;100.00;97499.44;4994937;28;20035;-61
2021/12/25 00:41:53;;;;;;;314.50;144.33;;;;;;;5.71;100.00;97502.06;4991805;28;20524;-61
2021/12/25 00:44:19;;;;;;;134.57;109.70;;;;;;;5.64;100.00;97497.13;4992112;28;20180;-61
2021/12/25 00:46:44;;;;;;;389.17;156.17;;;;;;;5.70;100.00;97507.16;4991764;28;20021;-61
2021/12/25 00:49:09;;;;;;;234.80;132.43;;;;;;;5.75;100.00;97507.94;4997231;28;20180;-62
2021/12/25 00:51:35;;;;;;;334.10;127.67;;;;;;;5.83;100.00;97529.81;4996119;28;20038;-62
2021/12/25 00:54:00;;;;;;;337.27;150.67;;;;;;;5.92;100.00;97532.22;4981193;28;20448;-62
2021/12/25 00:56:26;;;;;;;401.53;159.40;;;;;;;5.97;100.00;97534.69;4973589;28;20333;-62
2021/12/25 00:58:51;;;;;;;396.73;148.13;;;;;;;6.03;100.00;97534.56;4991429;28;20457;-62
2021/12/25 01:01:18;;;;;;;414.83;149.70;;;;;;;6.08;100.00;97532.78;4989401;28;20641;-62
2021/12/25 01:03:43;;;;;;;113.80;97.17;;;;;;;6.20;100.00;97534.22;4987942;28;20285;-61
2021/12/25 01:06:08;;;;;;;417.43;156.13;;;;;;;6.17;100.00;97526.66;4992968;28;20413;-60
2021/12/25 01:08:34;;;;;;;226.67;80.97;;;;;;;5.99;100.00;97527.84;4994625;28;20345;-61
2021/12/25 01:10:59;;;;;;;212.53;82.50;;;;;;;5.91;100.00;97530.53;4993146;28;20072;-61
2021/12/25 01:13:33;;;;;;;405.50;153.60;;;;;;;5.83;100.00;97534.91;4993547;28;20162;-63
2021/12/25 01:24:28;;;;;;;414.07;150.20;;;;;;;5.95;100.00;97544.88;4931829;29;20501;-61
2021/12/25 01:29:46;;;;;;;229.67;125.93;;;;;;;5.96;100.00;97548.25;4928347;28;20086;-60
2021/12/25 01:40:26;;;;;;;405.93;152.43;;;;;;;6.13;100.00;97527.59;4927219;28;20645;-61
2021/12/25 01:48:15;;;;;;;400.70;150.63;;;;;;;6.16;100.00;97535.16;4930652;29;20038;-60
2021/12/25 01:50:40;;;;;;;330.70;143.43;;;;;;;6.17;100.00;97537.69;4924466;28;20039;-60
2021/12/25 01:53:06;;;;;;;326.10;140.80;;;;;;;6.18;100.00;97544.47;4963945;28;20133;-61
2021/12/25 01:55:31;;;;;;;350.60;143.57;;;;;;;6.20;100.00;97540.16;4990771;28;20080;-60
2021/12/25 01:57:59;;;;;;;379.97;147.43;;;;;;;6.18;100.00;97534.28;4990867;28;20284;-61
2021/12/25 02:00:28;;;;;;;345.93;141.57;;;;;;;6.11;100.00;97514.09;4989223;28;20124;-61
2021/12/25 02:02:54;;;;;;;156.30;65.47;;;;;;;6.08;100.00;97514.97;4990576;28;20030;-61
2021/12/25 02:05:20;;;;;;;355.33;144.13;;;;;;;6.05;100.00;97527.75;4988638;28;20030;-61
2021/12/25 02:07:46;;;;;;;398.97;151.70;;;;;;;6.08;100.00;97521.75;4989934;28;20047;-60
2021/12/25 02:10:14;;;;;;;398.20;150.23;;;;;;;6.05;100.00;97527.75;4987105;28;20049;-62
2021/12/25 02:12:40;;;;;;;401.00;150.43;;;;;;;6.14;100.00;97519.09;4991109;28;20137;-63
2021/12/25 02:15:13;;;;;;;405.97;148.90;;;;;;;6.12;100.00;97523.38;4977357;28;20030;-61
2021/12/25 02:20:20;;;;;;;405.07;147.67;;;;;;;6.07;100.00;97531.09;4990292;28;20452;-61
2021/12/25 02:22:46;;;;;;;408.03;146.30;;;;;;;6.02;100.00;97529.50;4994010;28;20077;-61
2021/12/25 02:25:12;;;;;;;402.73;149.40;;;;;;;5.95;100.00;97521.97;4996412;28;20022;-63
2021/12/25 02:27:38;;;;;;;413.30;150.53;;;;;;;5.85;100.00;97524.72;4991834;28;20035;-61
2021/12/25 02:30:06;;;;;;;399.90;148.07;;;;;;;5.77;100.00;97534.19;4997787;28;20029;-61
2021/12/25 02:32:32;;;;;;;302.77;135.07;;;;;;;5.81;100.00;97539.16;4994408;28;20064;-61
2021/12/25 02:34:58;;;;;;;411.03;151.33;;;;;;;6.00;100.00;97534.63;4995113;28;20345;-61
2021/12/25 02:37:24;;;;;;;314.27;138.07;;;;;;;6.05;100.00;97526.91;4996287;28;20485;-62
2021/12/25 02:39:50;;;;;;;395.27;143.27;;;;;;;5.97;100.00;97511.78;4991431;28;20133;-62
2021/12/25 02:42:16;;;;;;;404.80;144.03;;;;;;;5.93;100.00;97522.88;4993636;28;20073;-61
2021/12/25 02:44:43;;;;;;;412.27;149.23;;;;;;;5.83;100.00;97521.34;4995955;28;20418;-60
2021/12/25 02:47:19;;;;;;;413.50;148.73;;;;;;;5.81;100.00;97523.91;4995043;28;20034;-62
2021/12/25 02:49:48;;;;;;;419.13;150.10;;;;;;;5.77;100.00;97522.28;4999627;28;20088;-62
2021/12/25 02:52:13;;;;;;;414.30;147.33;;;;;;;5.80;100.00;97526.50;4984865;28;20113;-61
2021/12/25 02:54:40;;;;;;;399.00;146.53;;;;;;;5.74;100.00;97532.50;4994030;28;20032;-60
2021/12/25 02:57:05;;;;;;;406.83;151.63;;;;;;;5.76;100.00;97535.03;4988864;28;20056;-63
2021/12/25 02:59:30;;;;;;;414.30;147.43;;;;;;;5.71;100.00;97531.72;4997427;28;20026;-61
2021/12/25 03:02:04;;;;;;;346.63;131.87;;;;;;;5.72;100.00;97529.19;4991716;28;20480;-62
2021/12/25 03:04:29;;;;;;;402.97;147.37;;;;;;;5.67;100.00;97535.19;4994693;28;20556;-62
2021/12/25 03:06:54;;;;;;;67.77;61.40;;;;;;;5.70;100.00;97533.44;4990445;28;20630;-61
2021/12/25 03:09:20;;;;;;;413.67;146.50;;;;;;;5.77;100.00;97524.00;4984717;28;20035;-61
2021/12/25 03:11:45;;;;;;;406.10;146.37;;;;;;;5.74;100.00;97532.50;4995664;28;20449;-62
2021/12/25 03:14:12;;;;;;;271.70;131.50;;;;;;;5.72;100.00;97526.63;4995580;28;20237;-61
2021/12/25 03:16:39;;;;;;;160.43;103.83;;;;;;;5.71;100.00;97531.72;4992981;28;20066;-62
2021/12/25 03:19:07;;;;;;;71.17;25.17;;;;;;;5.64;100.00;97533.56;4997084;28;20452;-62
2021/12/25 03:21:33;;;;;;;3.43;2.33;;;;;;;5.70;100.00;97523.25;4994272;28;20056;-61
2021/12/25 03:23:58;;;;;;;417.93;151.57;;;;;;;5.73;100.00;97524.94;4989538;28;20037;-61
2021/12/25 03:26:24;;;;;;;403.27;146.77;;;;;;;5.71;100.00;97534.28;4991002;28;20550;-61
2021/12/25 03:28:52;;;;;;;362.63;142.87;;;;;;;5.72;100.00;97536.81;4990004;28;20041;-61
2021/12/25 03:31:21;;;;;;;388.07;144.60;;;;;;;5.82;100.00;97540.00;4992648;28;20113;-62
2021/12/25 03:33:54;;;;;;;395.07;142.13;;;;;;;5.90;100.00;97548.34;4988001;28;20363;-63
2021/12/25 03:36:20;;;;;;;379.40;142.30;;;;;;;5.83;100.00;97542.53;4989100;28;20764;-61
2021/12/25 03:38:46;;;;;;;348.80;141.73;;;;;;;5.80;100.00;97544.28;4996324;28;20073;-60
2021/12/25 03:41:12;;;;;;;6.43;3.67;;;;;;;5.72;100.00;97538.50;4999143;28;20085;-61
2021/12/25 03:43:40;;;;;;;392.10;146.93;;;;;;;5.71;100.00;97532.56;4997328;28;20045;-63
2021/12/25 03:46:11;;;;;;;349.03;142.43;;;;;;;5.77;100.00;97534.19;4986913;28;20061;-61
2021/12/25 03:49:28;;;;;;;338.73;137.83;;;;;;;5.77;100.00;97534.19;4994649;28;20030;-61
2021/12/25 03:59:46;;;;;;;391.03;149.07;;;;;;;5.92;100.00;97531.38;4994256;28;20149;-60
2021/12/25 04:02:15;;;;;;;392.97;145.10;;;;;;;5.92;100.00;97533.94;4990197;28;20030;-61
2021/12/25 04:04:45;;;;;;;401.57;148.33;;;;;;;5.87;100.00;97528.91;4989400;28;20106;-61
2021/12/25 04:07:27;;;;;;;395.73;148.43;;;;;;;5.82;100.00;97540.84;4992937;28;20086;-61
2021/12/25 04:09:58;;;;;;;369.60;142.93;;;;;;;5.87;100.00;97545.88;4992539;28;20973;-61
2021/12/25 04:12:24;;;;;;;284.20;132.27;;;;;;;5.89;100.00;97551.78;4990612;28;20041;-61
2021/12/25 04:14:49;;;;;;;394.93;144.77;;;;;;;5.89;100.00;97552.63;4989930;28;20037;-61
2021/12/25 04:17:14;;;;;;;375.80;144.00;;;;;;;5.93;100.00;97550.88;4995969;28;20044;-61
2021/12/25 04:19:40;;;;;;;321.57;137.50;;;;;;;5.98;100.00;97551.63;4997109;28;20730;-60
2021/12/25 04:22:10;;;;;;;273.43;126.90;;;;;;;6.04;100.00;97550.66;4994760;28;20526;-61
2021/12/25 04:24:40;;;;;;;388.10;143.67;;;;;;;6.07;100.00;97555.72;4994011;28;20647;-61
2021/12/25 04:27:10;;;;;;;362.93;144.07;;;;;;;6.09;100.00;97552.25;4990726;28;20030;-61
2021/12/25 04:29:47;;;;;;;291.50;134.53;;;;;;;6.13;100.00;97558.13;4988851;28;20515;-62
2021/12/25 05:04:38;;;;;;;2.27;1.60;;;;;;;6.12;100.00;97554.75;4961674;28;20563;-61
2021/12/25 05:07:08;;;;;;;2.17;2.00;;;;;;;6.17;100.00;97570.78;4943403;28;20118;-62
2021/12/25 05:09:33;;;;;;;2.10;1.90;;;;;;;6.15;100.00;97564.88;4957807;28;20046;-62
2021/12/25 05:11:59;;;;;;;2.17;1.63;;;;;;;6.12;100.00;97564.91;4958307;28;20135;-63
2021/12/25 05:14:25;;;;;;;2.27;2.07;;;;;;;6.12;100.00;97564.91;4960518;28;20031;-61
2021/12/25 05:16:52;;;;;;;3.93;2.50;;;;;;;6.07;100.00;97556.53;4958347;28;20540;-60
2021/12/25 05:19:18;;;;;;;2.70;2.00;;;;;;;6.07;100.00;97569.25;4956563;28;20082;-61
2021/12/25 05:21:44;;;;;;;2.97;1.40;;;;;;;6.30;100.00;97576.47;4960203;28;20034;-61
2021/12/25 05:24:09;;;;;;;2.13;1.73;;;;;;;6.33;100.00;97572.16;4960370;28;20041;-62
2021/12/25 05:26:35;;;;;;;4.33;1.10;;;;;;;6.46;100.00;97570.19;4985503;28;20560;-59
2021/12/25 05:29:01;;;;;;;1.10;1.00;;;;;;;6.43;100.00;97581.28;4986418;28;20038;-61
2021/12/25 05:31:29;;;;;;;1.20;1.10;;;;;;;6.50;100.00;97583.72;4991557;28;20400;-61
2021/12/25 05:33:56;;;;;;;1.10;1.00;;;;;;;6.44;100.00;97571.97;4990897;28;20037;-60
2021/12/25 05:36:24;;;;;;;2.03;1.13;;;;;;;6.53;100.00;97586.22;4986587;28;20253;-62
2021/12/25 05:38:50;;;;;;;3.03;1.00;;;;;;;6.72;100.00;97578.16;4985863;28;20133;-61
2021/12/25 05:41:16;;;;;;;1.43;0.73;;;;;;;6.71;100.00;97562.91;4991175;28;20033;-60
2021/12/25 05:43:41;;;;;;;1.33;0.83;;;;;;;6.85;100.00;97566.00;4990635;28;20420;-62
2021/12/25 05:46:07;;;;;;;1.03;1.03;;;;;;;6.91;100.00;97563.34;4986261;28;20044;-62
2021/12/25 05:48:35;;;;;;;1.80;0.90;;;;;;;6.98;100.00;97569.97;4986862;28;20057;-60
2021/12/25 05:51:05;;;;;;;0.60;0.60;;;;;;;7.02;100.00;97566.47;4990576;28;20255;-60
2021/12/25 05:53:33;;;;;;;2.33;0.87;;;;;;;7.00;100.00;97568.22;4989604;28;20057;-61
2021/12/25 05:55:59;;;;;;;4.07;1.20;;;;;;;7.10;100.00;97584.13;4987120;28;20112;-62
2021/12/25 05:58:24;;;;;;;2.80;1.10;;;;;;;7.13;100.00;97582.34;4988202;28;20502;-63
2021/12/25 06:00:50;;;;;;;3.40;1.10;;;;;;;7.19;100.00;97569.50;4989812;28;20637;-61
2021/12/25 06:03:16;;;;;;;1.53;1.27;;;;;;;7.17;100.00;97578.88;4989811;28;20034;-62
2021/12/25 06:05:41;;;;;;;1.37;1.07;;;;;;;7.16;100.00;97564.47;4990819;28;20626;-62
2021/12/25 06:08:07;;;;;;;2.77;0.90;;;;;;;7.08;100.00;97574.00;4991123;28;20063;-61
2021/12/25 06:10:33;;;;;;;0.60;0.60;;;;;;;7.00;100.00;97570.75;4993549;28;20417;-62
2021/12/25 06:12:59;;;;;;;2.63;0.90;;;;;;;6.89;100.00;97554.88;4993462;28;20030;-61
2021/12/25 06:15:28;;;;;;;1.90;0.60;;;;;;;6.87;100.00;97560.00;4991026;28;20037;-61
2021/12/25 06:17:54;;;;;;;1.00;1.00;;;;;;;6.87;100.00;97554.91;4991928;28;20536;-61
2021/12/25 06:20:20;;;;;;;0.90;0.90;;;;;;;6.90;100.00;97564.19;4992656;28;20037;-62
2021/12/25 06:22:46;;;;;;;1.30;1.20;;;;;;;6.94;100.00;97560.72;4992603;28;20026;-62
2021/12/25 06:25:11;;;;;;;4.87;1.70;;;;;;;6.90;100.00;97569.28;4989560;28;20472;-61
2021/12/25 06:27:39;;;;;;;2.27;1.60;;;;;;;6.92;100.00;97565.00;4993562;28;20042;-61
2021/12/25 06:30:06;;;;;;;2.17;1.83;;;;;;;6.87;100.00;97572.72;4992733;28;20031;-62
2021/12/25 06:32:32;;;;;;;3.40;2.30;;;;;;;6.80;100.00;97566.09;4990078;28;20057;-62
2021/12/25 06:34:57;;;;;;;5.07;2.70;;;;;;;6.80;100.00;97572.91;4988569;28;20575;-62
2021/12/25 06:37:24;;;;;;;70.50;22.20;;;;;;;6.74;100.00;97576.44;4991350;28;20053;-61
2021/12/25 06:39:51;;;;;;;73.90;26.70;;;;;;;6.76;100.00;97569.59;4992771;28;20543;-62
2021/12/25 06:42:16;;;;;;;57.57;21.43;;;;;;;6.73;100.00;97573.91;4989911;28;20065;-62
2021/12/25 06:44:42;;;;;;;15.90;7.10;;;;;;;6.64;100.00;97553.72;4990656;28;20036;-60
2021/12/25 06:47:08;;;;;;;29.23;12.17;;;;;;;6.67;100.00;97554.50;4992955;28;20468;-61
2021/12/25 06:49:33;;;;;;;19.10;7.70;;;;;;;6.65;100.00;97558.78;4999171;28;20026;-59
2021/12/25 06:51:59;;;;;;;14.47;6.57;;;;;;;6.62;100.00;97553.75;4990221;28;20131;-61
2021/12/25 06:54:25;;;;;;;14.67;7.23;;;;;;;6.62;100.00;97550.38;4988398;28;20092;-61
2021/12/25 06:56:50;;;;;;;14.47;5.97;;;;;;;6.59;100.00;97556.34;4996948;28;20065;-59
2021/12/25 06:59:16;;;;;;;9.23;4.40;;;;;;;6.61;100.00;97556.34;4995973;28;20101;-60
2021/12/25 07:01:42;;;;;;;7.83;4.40;;;;;;;6.59;100.00;97565.69;4989633;28;20096;-61
2021/12/25 07:04:08;;;;;;;11.67;5.73;;;;;;;6.60;100.00;97562.28;4992028;28;20030;-61
2021/12/25 07:06:35;;;;;;;13.73;6.03;;;;;;;6.59;100.00;97558.06;4990974;28;20054;-61
2021/12/25 07:09:02;;;;;;;51.17;28.67;;;;;;;6.59;100.00;97560.59;4992632;28;20041;-61
2021/12/25 07:11:27;;;;;;;47.10;27.13;;;;;;;6.60;100.00;97563.13;4987391;28;20153;-59
2021/12/25 07:13:53;;;;;;;14.67;10.47;;;;;;;6.66;100.00;97567.28;4988908;28;20455;-59
2021/12/25 07:16:19;;;;;;;20.03;11.37;;;;;;;6.69;100.00;97562.94;4992680;28;20038;-59
2021/12/25 07:18:45;;;;;;;23.50;12.67;;;;;;;6.67;100.00;97557.03;4994237;28;20035;-59
2021/12/25 07:21:11;;;;;;;11.07;8.30;;;;;;;6.62;100.00;97560.56;4987437;28;20069;-60
2021/12/25 07:23:36;;;;;;;6.23;4.23;;;;;;;6.69;100.00;97551.91;4989415;28;20030;-59
2021/12/25 07:26:02;;;;;;;5.90;3.27;;;;;;;6.67;100.00;97567.22;4994507;28;20174;-59
2021/12/25 07:28:31;;;;;;;4.27;3.10;;;;;;;6.68;100.00;97571.44;4991785;28;20042;-60
2021/12/25 07:31:00;;;;;;;3.40;3.10;;;;;;;6.67;100.00;97571.47;4976512;28;20026;-60
2021/12/25 07:33:26;;;;;;;6.20;3.47;;;;;;;6.64;100.00;97584.28;4992229;28;20121;-60
2021/12/25 07:35:52;;;;;;;18.07;10.33;;;;;;;6.62;100.00;97591.13;4975569;28;20064;-60
2021/12/25 07:38:18;;;;;;;20.23;11.17;;;;;;;6.59;100.00;97592.00;4991095;28;20034;-60
2021/12/25 07:40:44;;;;;;;31.27;18.33;;;;;;;6.66;100.00;97600.38;4987764;28;20050;-59
2021/12/25 07:43:10;;;;;;;12.57;9.43;;;;;;;6.61;100.00;97607.25;4988156;28;20057;-59
2021/12/25 07:45:37;;;;;;;6.50;4.53;;;;;;;6.62;100.00;97616.59;4996178;28;20034;-60
2021/12/25 07:48:03;;;;;;;7.67;4.27;;;;;;;6.64;100.00;97625.03;4990035;28;20022;-59
2021/12/25 07:50:31;;;;;;;6.70;4.03;;;;;;;6.72;100.00;97628.25;4988988;28;20575;-59
2021/12/25 07:52:58;;;;;;;7.17;4.60;;;;;;;6.69;100.00;97624.06;4993326;28;20026;-60
2021/12/25 07:55:24;;;;;;;7.20;5.40;;;;;;;6.75;100.00;97639.22;4996808;28;20481;-60
2021/12/25 07:57:49;;;;;;;7.40;4.90;;;;;;;6.74;100.00;97637.56;4987968;28;20267;-60
2021/12/25 08:00:16;;;;;;;5.30;4.50;;;;;;;6.82;100.00;97630.59;4985947;28;20034;-60
2021/12/25 08:02:44;;;;;;;8.00;4.73;;;;;;;6.84;100.00;97633.94;4988338;28;20034;-56
2021/12/25 08:05:09;;;;;;;6.10;3.73;;;;;;;6.82;100.00;97632.31;4992939;28;20025;-59
2021/12/25 08:07:35;;;;;;;5.87;3.83;;;;;;;6.88;100.00;97640.66;4944194;28;1359647;-60
2021/12/25 08:10:12;;;;;;;5.43;4.07;;;;;;;6.94;100.00;97626.97;4988136;28;20139;-60
2021/12/25 08:12:44;;;;;;;6.40;4.20;;;;;;;6.96;100.00;97617.56;4989477;28;20050;-59
2021/12/25 08:15:11;;;;;;;4.93;4.40;;;;;;;7.03;100.00;97623.38;4991327;28;20409;-58
2021/12/25 08:17:37;;;;;;;6.37;4.20;;;;;;;7.07;100.00;97625.84;4989610;28;20145;-60
2021/12/25 08:20:04;;;;;;;9.10;6.37;;;;;;;7.04;100.00;97623.34;4987536;28;20121;-60
2021/12/25 08:22:30;;;;;;;9.60;5.47;;;;;;;7.03;100.00;97618.28;4991296;28;20040;-60
2021/12/25 08:24:55;;;;;;;5.97;4.17;;;;;;;7.12;100.00;97626.56;4993774;28;20083;-59
2021/12/25 08:27:21;;;;;;;6.43;5.17;;;;;;;6.95;100.00;97626.09;4988714;28;20562;-59
2021/12/25 08:29:46;;;;;;;6.60;5.43;;;;;;;6.93;100.00;97643.09;4987740;28;20030;-60
2021/12/25 08:32:12;;;;;;;9.50;7.23;;;;;;;6.93;100.00;97644.81;4994351;28;20056;-59
2021/12/25 08:34:38;;;;;;;9.20;8.13;;;;;;;6.83;100.00;97652.63;4990218;28;20033;-59
2021/12/25 08:37:04;;;;;;;9.73;6.50;;;;;;;6.61;100.00;97655.66;4975486;28;20038;-60
2021/12/25 08:39:30;;;;;;;11.13;6.33;;;;;;;6.46;100.00;97659.31;4988550;28;20032;-58
2021/12/25 08:42:01;;;;;;;10.83;6.60;;;;;;;6.38;100.00;97669.63;4996436;28;20022;-60
2021/12/25 08:44:39;;;;;;;8.77;6.23;;;;;;;6.36;100.00;97673.94;4990625;28;20041;-59
2021/12/25 08:47:08;;;;;;;5.97;4.93;;;;;;;6.20;100.00;97669.09;4995396;28;20057;-60
2021/12/25 08:49:36;;;;;;;11.87;5.97;;;;;;;6.21;100.00;97671.63;4991103;28;20041;-60
2021/12/25 08:52:08;;;;;;;7.70;5.70;;;;;;;6.11;100.00;97674.38;4995564;28;20400;-60
2021/12/25 08:54:34;;;;;;;6.97;5.33;;;;;;;6.05;100.00;97669.38;4991012;28;20037;-60
2021/12/25 08:57:01;;;;;;;7.40;5.83;;;;;;;5.81;100.00;97653.59;4991234;28;20033;-60
2021/12/25 08:59:27;;;;;;;7.30;5.43;;;;;;;5.68;100.00;97657.22;4991666;28;20129;-60
2021/12/25 09:01:54;;;;;;;8.53;5.93;;;;;;;5.78;100.00;97652.81;4994218;28;20627;-60
2021/12/25 09:04:19;;;;;;;11.17;5.97;;;;;;;5.89;100.00;97649.28;4991978;28;20030;-59
2021/12/25 09:06:45;;;;;;;8.27;5.20;;;;;;;5.79;100.00;97651.97;4989556;28;20504;-61
2021/12/25 09:09:11;;;;;;;10.90;6.27;;;;;;;5.80;100.00;97656.19;4991425;28;20026;-59
2021/12/25 09:11:38;;;;;;;12.03;6.13;;;;;;;5.72;100.00;97647.84;4992630;28;20783;-59
2021/12/25 09:14:04;;;;;;;8.93;6.43;;;;;;;5.79;100.00;97652.81;4988183;28;20358;-59
2021/12/25 09:16:30;;;;;;;8.10;5.80;;;;;;;5.73;100.00;97652.88;4992231;28;20030;-59
2021/12/25 09:18:56;;;;;;;9.57;6.87;;;;;;;5.77;100.00;97661.34;4995656;28;20380;-60
2021/12/25 09:21:21;;;;;;;10.07;7.00;;;;;;;5.64;100.00;97658.13;4992170;28;20026;-60
2021/12/25 09:23:48;;;;;;;9.37;7.00;;;;;;;5.73;100.00;97659.69;4989069;28;20033;-58
2021/12/25 09:26:14;;;;;;;9.07;7.43;;;;;;;5.57;100.00;97653.13;4989732;28;20080;-61
2021/12/25 09:28:40;;;;;;;8.43;5.90;;;;;;;5.52;100.00;97654.06;4992080;28;20037;-60
2021/12/25 09:31:06;;;;;;;12.70;7.43;;;;;;;5.51;100.00;97647.31;4990115;28;20405;-60
2021/12/25 09:33:32;;;;;;;10.97;6.93;;;;;;;5.54;100.00;97651.50;4989955;28;20036;-59
2021/12/25 09:36:02;;;;;;;18.53;7.50;;;;;;;5.47;100.00;97648.19;4997898;28;20719;-60
2021/12/25 09:38:28;;;;;;;9.30;6.70;;;;;;;5.55;100.00;97652.34;4991702;28;20042;-59
2021/12/25 09:40:55;;;;;;;11.43;7.17;;;;;;;5.50;100.00;97654.94;4991330;28;20609;-60
2021/12/25 09:43:21;;;;;;;11.63;6.97;;;;;;;5.56;100.00;97654.03;4985898;28;20133;-60
2021/12/25 09:45:46;;;;;;;7.57;6.00;;;;;;;5.56;100.00;97644.66;4987047;28;20450;-60
2021/12/25 09:48:12;;;;;;;9.37;6.70;;;;;;;5.61;100.00;97660.69;4989230;28;20543;-60
2021/12/25 09:50:37;;;;;;;9.67;5.57;;;;;;;5.54;100.00;97646.41;4988302;28;20034;-60
2021/12/25 09:53:08;;;;;;;9.07;6.10;;;;;;;5.57;100.00;97656.53;4985498;28;20030;-60
2021/12/25 09:55:33;;;;;;;7.97;6.23;;;;;;;5.51;100.00;97642.22;4989951;28;20027;-60
2021/12/25 09:57:59;;;;;;;8.77;6.80;;;;;;;5.39;100.00;97652.53;4991249;28;20038;-60
2021/12/25 10:00:26;;;;;;;9.13;6.83;;;;;;;5.39;100.00;97662.72;4989272;28;20030;-58
2021/12/25 10:02:54;;;;;;;9.00;7.60;;;;;;;5.30;100.00;97667.09;4988238;28;20038;-59
2021/12/25 10:05:28;;;;;;;11.30;7.43;;;;;;;5.28;100.00;97691.69;4990364;28;20040;-59
2021/12/25 10:08:11;;;;;;;10.53;7.07;;;;;;;5.26;100.00;97690.88;4989675;28;20061;-59
2021/12/25 10:10:45;;;;;;;11.03;7.93;;;;;;;5.09;100.00;97698.72;4987497;28;20493;-59
2021/12/25 10:13:41;;;;;;;9.07;7.90;;;;;;;4.98;100.00;97700.53;4987445;28;20038;-64
2021/12/25 10:16:25;;;;;;;10.52;8.18;;;;;;;5.06;100.00;97697.03;4987527;28;20473;-59
2021/12/25 10:18:52;;;;;;;9.67;6.43;;;;;;;5.07;100.00;97660.63;4990588;28;20402;-60
2021/12/25 10:21:29;;;;;;;12.27;8.67;;;;;;;5.09;100.00;97632.66;4986869;28;20129;-60
2021/12/25 10:24:13;;;;;;;13.83;8.57;;;;;;;5.15;100.00;97652.06;4987716;28;20066;-60
2021/12/25 10:26:42;;;;;;;12.57;8.20;;;;;;;5.10;100.00;97659.72;4990502;28;20053;-60
2021/12/25 10:29:24;;;;;;;11.70;8.03;;;;;;;5.07;100.00;97654.69;4988057;28;20026;-57
2021/12/25 10:31:52;;;;;;;10.80;8.40;;;;;;;5.02;100.00;97647.13;4988625;28;20122;-59
2021/12/25 10:34:21;;;;;;;13.50;8.77;;;;;;;4.93;100.00;97633.72;4989621;28;20041;-60
2021/12/25 10:36:47;;;;;;;11.60;8.73;;;;;;;4.88;100.00;97646.47;4990115;28;20089;-58
2021/12/25 10:39:21;;;;;;;11.70;8.00;;;;;;;4.97;100.00;97648.03;4985275;28;20018;-60
2021/12/25 10:42:09;;;;;;;12.73;8.63;;;;;;;4.97;100.00;97646.34;4988923;28;20023;-61
2021/12/25 10:44:37;;;;;;;13.53;8.97;;;;;;;4.85;100.00;97653.28;4989349;28;20481;-61
2021/12/25 10:47:10;;;;;;;13.77;9.20;;;;;;;4.83;100.00;97650.78;4989274;28;20154;-61
2021/12/25 10:49:39;;;;;;;11.90;8.93;;;;;;;4.81;100.00;97639.78;4986173;28;20103;-61
2021/12/25 10:52:23;;;;;;;13.40;8.60;;;;;;;4.92;100.00;97648.09;4992788;28;20354;-60
2021/12/25 10:54:50;;;;;;;16.50;9.63;;;;;;;4.68;100.00;97650.09;4992384;28;20034;-60
2021/12/25 10:57:42;;;;;;;13.70;8.87;;;;;;;4.71;100.00;97666.13;4989985;28;20046;-59
2021/12/25 11:00:24;;;;;;;10.83;7.80;;;;;;;4.56;100.00;97664.63;4989797;28;20464;-61
2021/12/25 11:03:02;;;;;;;12.60;8.60;;;;;;;4.69;100.00;97661.94;4993333;28;20099;-60
2021/12/25 11:05:33;;;;;;;16.13;9.37;;;;;;;4.63;100.00;97673.00;4992107;28;20058;-59
2021/12/25 11:08:02;;;;;;;15.00;9.57;;;;;;;4.60;100.00;97663.72;4988214;28;20577;-60
2021/12/25 11:10:29;;;;;;;14.97;9.10;;;;;;;4.62;100.00;97675.56;4973448;28;20081;-61
2021/12/25 11:12:58;;;;;;;13.70;8.83;;;;;;;4.63;100.00;97662.00;4994168;28;20578;-60
2021/12/25 11:15:30;;;;;;;12.73;8.63;;;;;;;4.63;100.00;97642.53;4993924;28;20870;-60
2021/12/25 11:18:06;;;;;;;11.53;8.13;;;;;;;4.62;100.00;97634.97;4974171;28;20532;-61
2021/12/25 11:20:36;;;;;;;8.53;7.47;;;;;;;4.64;100.00;97623.06;4994044;28;20060;-60
2021/12/25 11:23:04;;;;;;;11.20;8.00;;;;;;;4.58;100.00;97622.28;4993543;28;20034;-60
2021/12/25 11:25:33;;;;;;;13.10;9.80;;;;;;;4.55;100.00;97616.41;4993805;28;20116;-59
2021/12/25 11:27:59;;;;;;;12.57;8.30;;;;;;;4.65;100.00;97612.06;4992224;28;20026;-57
2021/12/25 11:30:29;;;;;;;13.67;9.60;;;;;;;4.66;100.00;97621.38;4994596;28;20109;-58
2021/12/25 11:32:58;;;;;;;15.47;9.87;;;;;;;4.69;100.00;97619.63;4994512;28;20049;-58
2021/12/25 11:35:24;;;;;;;11.10;8.27;;;;;;;4.76;100.00;97610.22;4992631;28;20433;-60
2021/12/25 11:37:52;;;;;;;10.83;8.53;;;;;;;4.67;100.00;97611.19;4989918;28;20030;-60
2021/12/25 11:40:22;;;;;;;13.10;8.20;;;;;;;4.70;100.00;97623.84;4994226;28;20633;-60
2021/12/25 11:42:49;;;;;;;11.83;8.10;;;;;;;4.54;100.00;97605.41;4995110;28;20116;-60
2021/12/25 11:45:17;;;;;;;11.27;7.00;;;;;;;4.40;100.00;97625.03;4990903;28;20037;-60
2021/12/25 11:47:51;;;;;;;12.77;7.30;;;;;;;4.42;100.00;97618.25;4992180;28;20041;-59
2021/12/25 11:50:24;;;;;;;8.73;7.60;;;;;;;4.24;100.00;97615.06;4992858;28;20116;-60
2021/12/25 11:53:13;;;;;;;8.40;6.10;;;;;;;4.06;100.00;97632.16;4992001;28;20078;-62
2021/12/25 11:58:39;;;;;;;10.73;7.70;;;;;;;4.07;100.00;97656.63;4989567;28;20121;-59
2021/12/25 12:01:28;;;;;;;10.93;7.00;;;;;;;3.87;100.00;97648.38;4993975;28;20034;-57
2021/12/25 12:03:59;;;;;;;11.90;7.43;;;;;;;3.92;100.00;97622.97;4988587;28;20387;-60
2021/12/25 12:06:43;;;;;;;11.47;7.67;;;;;;;3.90;100.00;97634.84;4987972;28;20054;-59
2021/12/25 12:09:11;;;;;;;11.03;7.37;;;;;;;3.92;100.00;97621.28;4990009;28;20507;-59
2021/12/25 12:11:40;;;;;;;10.43;7.20;;;;;;;3.98;100.00;97620.41;4991566;28;20105;-59
2021/12/25 12:14:26;;;;;;;10.10;7.43;;;;;;;4.08;100.00;97624.50;4986578;28;20028;-59
2021/12/25 12:16:53;;;;;;;11.13;7.30;;;;;;;4.12;100.00;97626.16;4989885;28;20474;-58
2021/12/25 12:19:35;;;;;;;8.53;7.30;;;;;;;4.10;100.00;97627.88;4990793;28;20034;-59
2021/12/25 12:28:00;;;;;;;14.07;7.77;;;;;;;3.99;100.00;97619.53;4988301;28;20502;-59
2021/12/25 12:30:31;;;;;;;13.77;9.18;;;;;;;4.02;100.00;97617.81;4992495;28;20539;-59
2021/12/25 12:32:58;;;;;;;12.50;8.53;;;;;;;3.90;100.00;97617.94;4986539;28;20329;-59
2021/12/25 12:35:33;;;;;;;10.80;7.80;;;;;;;3.93;100.00;97628.06;4988694;28;20424;-58
2021/12/25 12:38:38;;;;;;;11.35;7.88;;;;;;;3.74;100.00;97631.56;4975411;28;20072;-59
2021/12/25 12:41:12;;;;;;;11.87;7.93;;;;;;;3.75;100.00;97632.41;4986833;28;20050;-57
2021/12/25 12:44:09;;;;;;;9.33;7.20;;;;;;;3.71;100.00;97628.22;4985787;28;20369;-58
2021/12/25 12:47:12;;;;;;;9.37;7.97;;;;;;;3.67;100.00;97632.50;4975960;28;20329;-58